createdAt,value
2023-04-21T00:01:14.879Z,1.2
2023-04-21T00:02:30.084Z,1
2023-04-21T00:03:46.220Z,1
2023-04-21T00:05:02.346Z,0.8
2023-04-21T00:06:18.476Z,1.3
2023-04-21T00:07:34.617Z,1.2
2023-04-21T00:08:50.759Z,1.1
2023-04-21T00:10:06.896Z,0.9
2023-04-21T00:11:23.031Z,1.3
2023-04-21T00:12:39.164Z,0.8
2023-04-21T00:13:55.292Z,1.1
2023-04-21T00:15:11.454Z,1.5
2023-04-21T00:16:27.579Z,1.1
2023-04-21T00:17:43.702Z,1
2023-04-21T00:18:59.844Z,1.2
2023-04-21T00:20:15.978Z,0.9
2023-04-21T00:21:32.119Z,1.7
2023-04-21T00:22:48.263Z,1.2
2023-04-21T00:24:04.390Z,1.2
2023-04-21T00:25:20.522Z,1.3
2023-04-21T00:26:36.652Z,1.1
2023-04-21T00:27:52.816Z,1.1
2023-04-21T00:29:08.942Z,1.3
2023-04-21T00:30:25.077Z,1.1
2023-04-21T00:31:41.206Z,1
2023-04-21T00:32:57.339Z,1
2023-04-21T00:34:13.542Z,1
2023-04-21T00:35:28.790Z,1.1
2023-04-21T00:36:44.979Z,1.2
2023-04-21T00:38:00.174Z,1.1
2023-04-21T00:39:16.310Z,1.1
2023-04-21T00:40:32.456Z,1.2
2023-04-21T00:41:48.575Z,1.1
2023-04-21T00:43:04.719Z,1.2
2023-04-21T00:44:20.857Z,1
2023-04-21T00:45:36.987Z,1.1
2023-04-21T00:46:53.122Z,0.9
2023-04-21T00:48:09.270Z,0.8
2023-04-21T00:49:25.392Z,1.2
2023-04-21T00:50:41.549Z,1.1
2023-04-21T00:51:57.683Z,1.1
2023-04-21T00:53:13.809Z,1.1
2023-04-21T00:54:29.954Z,1.2
2023-04-21T00:55:46.074Z,1.4
2023-04-21T00:57:02.215Z,1.1
2023-04-21T00:58:18.355Z,1
2023-04-21T00:59:34.486Z,1
2023-04-21T01:00:50.623Z,1.2
2023-04-21T01:02:06.749Z,1.4
2023-04-21T01:03:22.909Z,1.2
2023-04-21T01:04:39.045Z,0.8
2023-04-21T01:05:55.179Z,1
2023-04-21T01:07:11.307Z,1
2023-04-21T01:08:27.000Z,1.4
2023-04-21T01:09:43.646Z,1.6
2023-04-21T01:10:58.890Z,1.1
2023-04-21T01:12:14.095Z,1.3
2023-04-21T01:13:30.231Z,1
2023-04-21T01:14:46.368Z,0.9
2023-04-21T01:16:02.495Z,1.1
2023-04-21T01:17:18.630Z,1.2
2023-04-21T01:18:34.764Z,1
2023-04-21T01:19:50.911Z,1.4
2023-04-21T01:21:07.041Z,1.1
2023-04-21T01:22:23.188Z,1.3
2023-04-21T01:23:39.320Z,1.5
2023-04-21T01:24:55.459Z,1.2
2023-04-21T01:26:11.593Z,1.7
2023-04-21T01:27:27.728Z,1.5
2023-04-21T01:28:43.869Z,1.3
2023-04-21T01:29:59.995Z,1.1
2023-04-21T01:31:16.123Z,1.2
2023-04-21T01:32:32.277Z,1.6
2023-04-21T01:33:48.409Z,1.6
2023-04-21T01:35:04.550Z,1.3
2023-04-21T01:36:20.671Z,1.3
2023-04-21T01:37:36.805Z,1.1
2023-04-21T01:38:52.948Z,1.1
2023-04-21T01:40:09.087Z,1.8
2023-04-21T01:41:25.372Z,1.4
2023-04-21T01:42:40.531Z,1.2
2023-04-21T01:43:56.662Z,1.1
2023-04-21T01:45:12.803Z,1.3
2023-04-21T01:46:28.929Z,1.4
2023-04-21T01:47:45.079Z,1
2023-04-21T01:49:01.210Z,1.3
2023-04-21T01:50:17.345Z,1.2
2023-04-21T01:51:33.484Z,1.3
2023-04-21T01:52:49.625Z,1.6
2023-04-21T01:54:05.742Z,1.3
2023-04-21T01:55:21.891Z,1
2023-04-21T01:56:38.043Z,1.2
2023-04-21T01:57:54.163Z,1.2
2023-04-21T01:59:10.305Z,1.4
2023-04-21T02:00:26.422Z,1.1
2023-04-21T02:01:42.574Z,1.2
2023-04-21T02:02:58.709Z,1.2
2023-04-21T02:04:14.847Z,1.9
2023-04-21T02:05:30.972Z,1.2
2023-04-21T02:06:47.112Z,1.1
2023-04-21T02:08:03.252Z,1.1
2023-04-21T02:09:19.402Z,1.2
2023-04-21T02:10:35.527Z,1.2
2023-04-21T02:11:51.664Z,1.4
2023-04-21T02:13:07.801Z,1.4
2023-04-21T02:14:23.923Z,1.2
2023-04-21T02:15:40.076Z,1.2
2023-04-21T02:16:56.213Z,1.2
2023-04-21T02:18:12.345Z,2
2023-04-21T02:19:28.473Z,1.2
2023-04-21T02:20:44.611Z,1.3
2023-04-21T02:22:00.745Z,1.4
2023-04-21T02:23:16.897Z,1.1
2023-04-21T02:24:33.022Z,1.7
2023-04-21T02:25:49.156Z,1
2023-04-21T02:27:05.290Z,1.5
2023-04-21T02:28:21.434Z,1.3
2023-04-21T02:29:37.625Z,1.3
2023-04-21T02:30:52.858Z,1.4
2023-04-21T02:32:09.063Z,1.1
2023-04-21T02:33:24.269Z,1.3
2023-04-21T02:34:40.403Z,1.6
2023-04-21T02:35:56.536Z,1.4
2023-04-21T02:37:12.666Z,1.4
2023-04-21T02:38:28.812Z,1.6
2023-04-21T02:39:44.955Z,1.3
2023-04-21T02:41:01.087Z,1.3
2023-04-21T02:42:17.213Z,1.1
2023-04-21T02:43:33.343Z,1.4
2023-04-21T02:44:49.492Z,1.2
2023-04-21T02:46:05.633Z,1.2
2023-04-21T02:47:21.765Z,1.1
2023-04-21T02:48:37.884Z,1.4
2023-04-21T02:49:54.023Z,1.3
2023-04-21T02:51:10.183Z,1
2023-04-21T02:52:26.306Z,1.6
2023-04-21T02:53:42.442Z,1.1
2023-04-21T02:54:58.583Z,1.1
2023-04-21T02:56:14.715Z,1.4
2023-04-21T02:57:30.853Z,2
2023-04-21T02:58:46.989Z,2.3
2023-04-21T03:00:03.117Z,1
2023-04-21T03:01:19.253Z,1.5
2023-04-21T03:02:35.383Z,1
2023-04-21T03:03:51.533Z,1.3
2023-04-21T03:05:07.723Z,1.2
2023-04-21T03:06:22.962Z,1.3
2023-04-21T03:07:38.174Z,1.2
2023-04-21T03:08:54.308Z,1.5
2023-04-21T03:10:10.433Z,1.5
2023-04-21T03:11:26.564Z,1.4
2023-04-21T03:12:42.714Z,1.1
2023-04-21T03:13:58.863Z,1.2
2023-04-21T03:15:14.989Z,2
2023-04-21T03:16:31.122Z,1.6
2023-04-21T03:17:47.245Z,1.4
2023-04-21T03:19:03.388Z,1.4
2023-04-21T03:20:19.533Z,1.1
2023-04-21T03:21:35.675Z,1.1
2023-04-21T03:22:51.810Z,1.7
2023-04-21T03:24:07.930Z,1.4
2023-04-21T03:25:24.069Z,1.1
2023-04-21T03:26:40.206Z,1.6
2023-04-21T03:27:56.353Z,2.5
2023-04-21T03:29:12.491Z,1.1
2023-04-21T03:30:28.610Z,1.5
2023-04-21T03:31:44.739Z,1.4
2023-04-21T03:33:00.892Z,1.4
2023-04-21T03:34:17.020Z,1.7
2023-04-21T03:35:33.171Z,1.2
2023-04-21T03:36:49.294Z,1.2
2023-04-21T03:38:05.420Z,1.7
2023-04-21T03:39:21.645Z,1
2023-04-21T03:40:36.880Z,1.5
2023-04-21T03:41:52.085Z,1.4
2023-04-21T03:43:08.232Z,1.3
2023-04-21T03:44:24.360Z,1.5
2023-04-21T03:45:40.492Z,1.2
2023-04-21T03:46:56.617Z,1.3
2023-04-21T03:48:12.765Z,1.5
2023-04-21T03:49:28.900Z,1.1
2023-04-21T03:50:45.033Z,1.8
2023-04-21T03:52:01.174Z,1.5
2023-04-21T03:53:17.300Z,2.2
2023-04-21T03:54:33.438Z,1.4
2023-04-21T03:55:49.590Z,1.6
2023-04-21T03:57:05.714Z,2.1
2023-04-21T03:58:21.859Z,1.4
2023-04-21T03:59:37.979Z,2
2023-04-21T04:00:54.110Z,1.5
2023-04-21T04:02:10.265Z,1.2
2023-04-21T04:03:26.410Z,1.3
2023-04-21T04:04:42.539Z,1.1
2023-04-21T04:05:58.675Z,1.2
2023-04-21T04:07:14.793Z,1.6
2023-04-21T04:08:30.949Z,1.7
2023-04-21T04:09:47.086Z,1.6
2023-04-21T04:11:03.207Z,1.9
2023-04-21T04:12:19.354Z,1.3
2023-04-21T04:13:35.542Z,1.6
2023-04-21T04:14:50.773Z,1.6
2023-04-21T04:16:06.045Z,1.6
2023-04-21T04:17:21.235Z,1.7
2023-04-21T04:18:37.368Z,1.1
2023-04-21T04:19:53.502Z,1.5
2023-04-21T04:21:09.644Z,1.5
2023-04-21T04:22:25.775Z,1.4
2023-04-21T04:23:41.930Z,2.7
2023-04-21T04:24:58.067Z,1.4
2023-04-21T04:26:14.181Z,1.3
2023-04-21T04:27:30.316Z,1.5
2023-04-21T04:28:46.460Z,1.9
2023-04-21T04:30:02.612Z,1.1
2023-04-21T04:31:18.731Z,1.3
2023-04-21T04:32:34.872Z,1.7
2023-04-21T04:33:51.011Z,1.5
2023-04-21T04:35:07.137Z,1.7
2023-04-21T04:36:23.287Z,1.2
2023-04-21T04:37:39.415Z,2
2023-04-21T04:38:55.547Z,1.1
2023-04-21T04:40:11.680Z,1.3
2023-04-21T04:41:27.816Z,2.4
2023-04-21T04:42:43.963Z,1.8
2023-04-21T04:44:00.106Z,2.4
2023-04-21T04:45:16.228Z,1.7
2023-04-21T04:46:32.356Z,1.8
2023-04-21T04:47:48.498Z,1.6
2023-04-21T04:49:04.707Z,2.5
2023-04-21T04:50:19.954Z,4.1
2023-04-21T04:51:35.156Z,2
2023-04-21T04:52:51.287Z,1.7
2023-04-21T04:54:07.427Z,2.5
2023-04-21T04:55:23.565Z,3.7
2023-04-21T04:56:39.683Z,3
2023-04-21T04:57:55.824Z,2.5
2023-04-21T04:59:11.981Z,3
2023-04-21T05:00:28.104Z,2.5
2023-04-21T05:01:44.244Z,3.7
2023-04-21T05:03:00.365Z,2.9
2023-04-21T05:04:16.509Z,2.6
2023-04-21T05:05:32.662Z,3
2023-04-21T05:06:48.789Z,4.9
2023-04-21T05:08:04.923Z,3.4
2023-04-21T05:09:21.062Z,3.3
2023-04-21T05:10:37.195Z,3.8
2023-04-21T05:11:53.335Z,2.8
2023-04-21T05:13:09.477Z,2.2
2023-04-21T05:14:25.608Z,2.6
2023-04-21T05:15:41.727Z,3
2023-04-21T05:16:57.872Z,3.5
2023-04-21T05:18:14.018Z,3.7
2023-04-21T05:19:30.140Z,4
2023-04-21T05:20:46.280Z,2.7
2023-04-21T05:22:02.419Z,2.6
2023-04-21T05:23:18.599Z,3.3
2023-04-21T05:24:33.843Z,3.6
2023-04-21T05:25:49.050Z,3.5
2023-04-21T05:27:05.181Z,3.2
2023-04-21T05:28:21.343Z,3.5
2023-04-21T05:29:37.460Z,2.8
2023-04-21T05:30:53.598Z,6.1
2023-04-21T05:32:09.733Z,3.8
2023-04-21T05:33:25.861Z,4.1
2023-04-21T05:34:42.016Z,4.2
2023-04-21T05:35:58.139Z,4
2023-04-21T05:37:14.278Z,2.4
2023-04-21T05:38:30.423Z,3.3
2023-04-21T05:39:46.539Z,4.1
2023-04-21T05:41:02.690Z,3.7
2023-04-21T05:42:18.824Z,4.2
2023-04-21T05:43:34.956Z,4.7
2023-04-21T05:44:51.099Z,2.7
2023-04-21T05:46:07.220Z,2.7
2023-04-21T05:48:39.501Z,3.5
2023-04-21T05:49:55.635Z,3.2
2023-04-21T05:51:11.779Z,4.5
2023-04-21T05:52:27.914Z,3.6
2023-04-21T05:53:44.067Z,3.2
2023-04-21T05:55:00.189Z,3
2023-04-21T05:56:16.324Z,3.5
2023-04-21T05:57:32.522Z,7.2
2023-04-21T05:58:47.754Z,10.7
2023-04-21T06:00:03.944Z,10.6
2023-04-21T06:01:19.160Z,9.9
2023-04-21T06:02:35.285Z,9.1
2023-04-21T06:03:51.439Z,9.3
2023-04-21T06:05:07.570Z,10.2
2023-04-21T06:06:23.712Z,9.5
2023-04-21T06:07:39.827Z,9.7
2023-04-21T06:08:55.961Z,9.1
2023-04-21T06:10:12.125Z,8.2
2023-04-21T06:11:28.254Z,11
2023-04-21T06:12:44.379Z,8
2023-04-21T06:14:00.515Z,12.2
2023-04-21T06:15:16.647Z,9.4
2023-04-21T06:16:32.795Z,8.5
2023-04-21T06:17:48.935Z,8.9
2023-04-21T06:19:05.060Z,9.3
2023-04-21T06:20:21.191Z,8.2
2023-04-21T06:21:37.335Z,11.5
2023-04-21T06:22:53.486Z,12.5
2023-04-21T06:24:09.612Z,9.5
2023-04-21T06:25:25.741Z,10.4
2023-04-21T06:26:41.872Z,9.1
2023-04-21T06:27:58.017Z,12.4
2023-04-21T06:29:14.158Z,8.9
2023-04-21T06:30:30.299Z,10.1
2023-04-21T06:31:46.436Z,10.9
2023-04-21T06:33:02.613Z,11.3
2023-04-21T06:34:17.860Z,11.3
2023-04-21T06:35:33.067Z,10
2023-04-21T06:36:48.212Z,11.8
2023-04-21T06:38:04.357Z,10.7
2023-04-21T06:39:20.504Z,12.6
2023-04-21T06:40:36.625Z,9.1
2023-04-21T06:41:52.772Z,9.9
2023-04-21T06:43:08.891Z,8.8
2023-04-21T06:44:25.052Z,9.6
2023-04-21T06:45:41.186Z,8.6
2023-04-21T06:46:57.314Z,10.4
2023-04-21T06:48:13.457Z,11.6
2023-04-21T06:49:29.573Z,10.4
2023-04-21T06:50:45.732Z,12.4
2023-04-21T06:52:01.860Z,9
2023-04-21T06:53:18.005Z,8.9
2023-04-21T06:54:34.138Z,10.6
2023-04-21T06:55:50.265Z,8
2023-04-21T06:57:06.413Z,10.5
2023-04-21T06:58:22.552Z,10.5
2023-04-21T06:59:38.678Z,9
2023-04-21T07:00:54.810Z,11.8
2023-04-21T07:02:10.944Z,11.1
2023-04-21T07:03:27.090Z,10.8
2023-04-21T07:04:43.227Z,10.1
2023-04-21T07:05:59.357Z,9.2
2023-04-21T07:07:15.496Z,9.6
2023-04-21T07:08:31.628Z,9.7
2023-04-21T07:09:47.760Z,14.7
2023-04-21T07:11:03.907Z,10.8
2023-04-21T07:12:20.037Z,9.9
2023-04-21T07:13:36.166Z,8.3
2023-04-21T07:14:52.300Z,8.3
2023-04-21T07:16:08.445Z,9.4
2023-04-21T07:17:24.585Z,9.8
2023-04-21T07:18:40.718Z,8.8
2023-04-21T07:19:56.852Z,10.5
2023-04-21T07:21:12.977Z,9.3
2023-04-21T07:22:29.137Z,11
2023-04-21T07:23:45.327Z,9.5
2023-04-21T07:25:00.563Z,11.2
2023-04-21T07:26:15.766Z,10.9
2023-04-21T07:27:31.898Z,12.4
2023-04-21T07:28:48.039Z,13.3
2023-04-21T07:30:04.169Z,10.3
2023-04-21T07:31:20.309Z,9.4
2023-04-21T07:32:36.443Z,11.5
2023-04-21T07:33:52.576Z,8.2
2023-04-21T07:35:08.711Z,12
2023-04-21T07:36:24.852Z,8.4
2023-04-21T07:37:40.989Z,9.6
2023-04-21T07:38:57.139Z,9.6
2023-04-21T07:40:13.263Z,8.7
2023-04-21T07:41:29.396Z,8.3
2023-04-21T07:42:45.525Z,8.5
2023-04-21T07:44:01.666Z,10.2
2023-04-21T07:45:17.810Z,10.4
2023-04-21T07:46:33.949Z,10.4
2023-04-21T07:47:50.089Z,10.1
2023-04-21T07:49:06.215Z,9.4
2023-04-21T07:50:22.341Z,11.5
2023-04-21T07:51:38.499Z,8.7
2023-04-21T07:52:54.624Z,8.3
2023-04-21T07:54:10.768Z,7.8
2023-04-21T07:55:26.892Z,8.3
2023-04-21T07:56:43.030Z,9.7
2023-04-21T07:57:59.241Z,8.6
2023-04-21T07:59:14.467Z,9
2023-04-21T08:00:29.689Z,6.9
2023-04-21T08:01:45.832Z,7.5
2023-04-21T08:03:01.970Z,8.4
2023-04-21T08:04:18.094Z,8.4
2023-04-21T08:05:34.219Z,9.5
2023-04-21T08:06:50.352Z,9.6
2023-04-21T08:08:06.513Z,9.3
2023-04-21T08:09:22.651Z,9.3
2023-04-21T08:10:38.767Z,8.4
2023-04-21T08:11:54.919Z,8.7
2023-04-21T08:13:11.052Z,8.6
2023-04-21T08:14:27.182Z,9.8
2023-04-21T08:15:43.335Z,7.7
2023-04-21T08:16:59.469Z,10.1
2023-04-21T08:18:15.583Z,6.1
2023-04-21T08:19:31.736Z,7.7
2023-04-21T08:20:47.866Z,7.4
2023-04-21T08:22:04.016Z,8.6
2023-04-21T08:23:20.151Z,6.4
2023-04-21T08:24:36.275Z,8.4
2023-04-21T08:25:52.409Z,9.9
2023-04-21T08:27:08.550Z,9
2023-04-21T08:28:24.683Z,6.8
2023-04-21T08:29:40.834Z,9.8
2023-04-21T08:30:56.960Z,5.9
2023-04-21T08:32:13.164Z,7.7
2023-04-21T08:33:28.417Z,8.5
2023-04-21T08:34:44.601Z,8.5
2023-04-21T08:35:59.809Z,10.6
2023-04-21T08:37:15.948Z,8.4
2023-04-21T08:38:32.099Z,8.7
2023-04-21T08:39:48.230Z,8.2
2023-04-21T08:41:04.357Z,9.3
2023-04-21T08:42:20.500Z,9.6
2023-04-21T08:43:36.636Z,9.2
2023-04-21T08:44:52.768Z,8.1
2023-04-21T08:46:08.900Z,8
2023-04-21T08:47:25.046Z,9.4
2023-04-21T08:48:41.174Z,7.6
2023-04-21T08:49:57.335Z,7.6
2023-04-21T08:51:13.464Z,5.7
2023-04-21T08:52:29.596Z,9.1
2023-04-21T08:53:45.723Z,7.9
2023-04-21T08:55:01.854Z,8.2
2023-04-21T08:56:18.010Z,9
2023-04-21T08:57:34.149Z,7.2
2023-04-21T08:58:50.289Z,7.9
2023-04-21T09:00:06.417Z,6.3
2023-04-21T09:01:22.550Z,6.7
2023-04-21T09:02:38.694Z,7.5
2023-04-21T09:03:54.823Z,7.7
2023-04-21T09:05:10.971Z,6.3
2023-04-21T09:06:27.091Z,7.3
2023-04-21T09:07:43.301Z,5.8
2023-04-21T09:08:58.526Z,6.6
2023-04-21T09:10:13.745Z,6.6
2023-04-21T09:11:29.875Z,6.4
2023-04-21T09:12:46.030Z,7.6
2023-04-21T09:14:02.155Z,6.4
2023-04-21T09:15:18.296Z,6
2023-04-21T09:16:34.433Z,8
2023-04-21T09:17:50.552Z,11.5
2023-04-21T09:19:06.701Z,7.7
2023-04-21T09:20:22.834Z,7.6
2023-04-21T09:21:38.979Z,6
2023-04-21T09:22:55.112Z,9.2
2023-04-21T09:24:11.248Z,8.5
2023-04-21T09:25:27.406Z,8.8
2023-04-21T09:26:43.536Z,6.5
2023-04-21T09:27:59.673Z,5.6
2023-04-21T09:29:15.796Z,9
2023-04-21T09:30:31.934Z,7.2
2023-04-21T09:31:48.081Z,8.1
2023-04-21T09:33:04.210Z,7.9
2023-04-21T09:34:20.347Z,6.3
2023-04-21T09:35:36.490Z,9.8
2023-04-21T09:36:52.628Z,8.7
2023-04-21T09:38:08.771Z,5.3
2023-04-21T09:39:24.904Z,6.7
2023-04-21T09:40:41.035Z,7.3
2023-04-21T09:41:57.240Z,6.9
2023-04-21T09:43:12.483Z,7
2023-04-21T09:44:27.677Z,9.5
2023-04-21T09:45:42.831Z,7.4
2023-04-21T09:46:58.990Z,8.2
2023-04-21T09:48:15.116Z,10.8
2023-04-21T09:49:31.250Z,11
2023-04-21T09:50:47.399Z,8
2023-04-21T09:52:03.526Z,7.6
2023-04-21T09:53:19.671Z,5.5
2023-04-21T09:54:35.812Z,8.6
2023-04-21T09:55:51.946Z,6
2023-04-21T09:57:08.081Z,7.7
2023-04-21T09:58:24.205Z,8.9
2023-04-21T09:59:40.353Z,8.2
2023-04-21T10:00:56.487Z,8.7
2023-04-21T10:02:12.619Z,8.6
2023-04-21T10:03:28.754Z,8.2
2023-04-21T10:04:44.901Z,7
2023-04-21T10:06:01.057Z,8.1
2023-04-21T10:07:17.177Z,9.1
2023-04-21T10:08:33.321Z,7.8
2023-04-21T10:09:49.460Z,7.7
2023-04-21T10:11:05.592Z,11
2023-04-21T10:12:21.727Z,6.5
2023-04-21T10:13:37.869Z,9.1
2023-04-21T10:14:53.998Z,9.7
2023-04-21T10:16:10.134Z,7.4
2023-04-21T10:17:26.275Z,8.1
2023-04-21T10:18:42.423Z,7.9
2023-04-21T10:19:58.552Z,6.9
2023-04-21T10:21:14.693Z,7.7
2023-04-21T10:22:30.821Z,7.4
2023-04-21T10:23:46.958Z,7.2
2023-04-21T10:25:03.106Z,8.7
2023-04-21T10:26:19.250Z,9
2023-04-21T10:27:35.377Z,9.4
2023-04-21T10:28:51.526Z,5.8
2023-04-21T10:30:07.653Z,6.9
2023-04-21T10:31:23.804Z,5.4
2023-04-21T10:32:39.999Z,6.8
2023-04-21T10:33:55.242Z,5.4
2023-04-21T10:35:10.517Z,7.6
2023-04-21T10:36:25.743Z,9.1
2023-04-21T10:37:41.018Z,6.6
2023-04-21T10:38:56.269Z,8.1
2023-04-21T10:40:11.461Z,6.6
2023-04-21T10:41:27.599Z,6.2
2023-04-21T10:42:43.747Z,6.6
2023-04-21T10:43:59.897Z,6.2
2023-04-21T10:45:16.032Z,8
2023-04-21T10:46:32.157Z,6.8
2023-04-21T10:47:48.292Z,6
2023-04-21T10:49:04.446Z,8.1
2023-04-21T10:50:20.569Z,6.3
2023-04-21T10:51:36.719Z,6.9
2023-04-21T10:52:52.844Z,6.8
2023-04-21T10:54:08.977Z,6.5
2023-04-21T10:55:25.139Z,6.6
2023-04-21T10:56:41.266Z,6.1
2023-04-21T10:57:57.408Z,8
2023-04-21T10:59:13.527Z,6
2023-04-21T11:00:29.673Z,7.5
2023-04-21T11:03:01.962Z,5.7
2023-04-21T11:04:18.093Z,6.7
2023-04-21T11:05:34.215Z,6.2
2023-04-21T11:06:50.360Z,5.3
2023-04-21T11:08:06.501Z,5.6
2023-04-21T11:09:22.638Z,6.8
2023-04-21T11:10:38.788Z,6.4
2023-04-21T11:11:54.966Z,7.2
2023-04-21T11:13:10.207Z,6.1
2023-04-21T11:14:25.422Z,7.6
2023-04-21T11:15:40.572Z,7.5
2023-04-21T11:16:56.722Z,7.2
2023-04-21T11:18:12.851Z,8.3
2023-04-21T11:19:28.984Z,8.5
2023-04-21T11:20:45.119Z,9.6
2023-04-21T11:22:01.259Z,7.8
2023-04-21T11:23:17.416Z,8.4
2023-04-21T11:24:33.545Z,6.3
2023-04-21T11:25:49.670Z,7.4
2023-04-21T11:27:05.803Z,8
2023-04-21T11:28:21.938Z,6.1
2023-04-21T11:29:38.093Z,8.6
2023-04-21T11:30:54.232Z,6.8
2023-04-21T11:32:10.366Z,6.9
2023-04-21T11:33:26.493Z,9.8
2023-04-21T11:34:42.630Z,6.7
2023-04-21T11:35:58.780Z,6.3
2023-04-21T11:37:14.920Z,7.2
2023-04-21T11:38:31.055Z,7.4
2023-04-21T11:39:47.190Z,10
2023-04-21T11:41:03.314Z,8.4
2023-04-21T11:42:19.475Z,5.1
2023-04-21T11:43:35.604Z,7.5
2023-04-21T11:44:51.727Z,7.2
2023-04-21T11:46:07.881Z,7.4
2023-04-21T11:47:24.012Z,7.2
2023-04-21T11:48:40.144Z,6.7
2023-04-21T11:49:56.292Z,8.9
2023-04-21T11:51:12.416Z,7
2023-04-21T11:52:28.561Z,7
2023-04-21T11:53:44.683Z,6.9
2023-04-21T11:55:00.835Z,7.6
2023-04-21T11:56:16.965Z,7.3
2023-04-21T11:57:33.112Z,6.3
2023-04-21T11:58:49.244Z,6.7
2023-04-21T12:00:05.377Z,5.9
2023-04-21T12:01:21.526Z,7.8
2023-04-21T12:02:37.720Z,9
2023-04-21T12:03:52.953Z,8.9
2023-04-21T12:05:08.161Z,7.3
2023-04-21T12:06:24.301Z,7.9
2023-04-21T12:07:40.421Z,9
2023-04-21T12:08:56.562Z,7.6
2023-04-21T12:10:12.687Z,8.4
2023-04-21T12:11:28.849Z,8.1
2023-04-21T12:12:44.981Z,7.8
2023-04-21T12:14:01.114Z,6.3
2023-04-21T12:15:17.252Z,6.3
2023-04-21T12:16:33.370Z,5.3
2023-04-21T12:17:49.527Z,6.7
2023-04-21T12:19:05.664Z,7.1
2023-04-21T12:20:21.802Z,4.7
2023-04-21T12:21:37.935Z,6.1
2023-04-21T12:22:54.062Z,6.6
2023-04-21T12:24:10.217Z,5.7
2023-04-21T12:25:26.340Z,6.3
2023-04-21T12:26:42.473Z,6.3
2023-04-21T12:27:58.607Z,5.9
2023-04-21T12:29:14.737Z,5.3
2023-04-21T12:30:30.890Z,4.8
2023-04-21T12:31:47.031Z,5.2
2023-04-21T12:33:03.156Z,6.8
2023-04-21T12:34:19.281Z,6.3
2023-04-21T12:35:35.418Z,3.9
2023-04-21T12:36:51.635Z,5.9
2023-04-21T12:38:06.860Z,5.8
2023-04-21T12:39:22.083Z,5.6
2023-04-21T12:40:38.211Z,6.5
2023-04-21T12:41:54.353Z,4.9
2023-04-21T12:43:10.493Z,4.3
2023-04-21T12:44:26.624Z,4.6
2023-04-21T12:45:42.752Z,5
2023-04-21T12:46:58.891Z,4.7
2023-04-21T12:48:15.025Z,5.1
2023-04-21T12:49:31.175Z,4.5
2023-04-21T12:50:47.309Z,4.8
2023-04-21T12:52:03.438Z,4.1
2023-04-21T12:53:19.574Z,4.4
2023-04-21T12:54:35.714Z,30.4
2023-04-21T12:55:51.848Z,6.7
2023-04-21T12:57:07.981Z,11.5
2023-04-21T12:58:24.124Z,8.3
2023-04-21T12:59:40.253Z,8.6
2023-04-21T13:00:56.401Z,5.6
2023-04-21T13:02:12.535Z,6.4
2023-04-21T13:03:28.665Z,5.9
2023-04-21T13:04:44.792Z,17.9
2023-04-21T13:06:00.944Z,11.5
2023-04-21T13:07:17.068Z,9
2023-04-21T13:08:33.207Z,8.1
2023-04-21T13:09:49.338Z,7.3
2023-04-21T13:11:05.542Z,10.3
2023-04-21T13:12:20.805Z,12.4
2023-04-21T13:13:36.008Z,9.3
2023-04-21T13:14:52.146Z,9.6
2023-04-21T13:16:08.289Z,9.9
2023-04-21T13:17:24.426Z,6.4
2023-04-21T13:18:40.557Z,7.9
2023-04-21T13:19:56.695Z,7.6
2023-04-21T13:21:12.813Z,4.8
2023-04-21T13:22:28.961Z,7
2023-04-21T13:23:45.106Z,6.9
2023-04-21T13:25:01.244Z,7.4
2023-04-21T13:26:17.376Z,7.7
2023-04-21T13:27:33.512Z,7.9
2023-04-21T13:28:49.659Z,6
2023-04-21T13:30:05.785Z,8.2
2023-04-21T13:31:21.915Z,6.8
2023-04-21T13:32:38.053Z,6.9
2023-04-21T13:33:54.192Z,6.8
2023-04-21T13:35:10.335Z,5.4
2023-04-21T13:36:26.468Z,6.7
2023-04-21T13:37:42.608Z,4.7
2023-04-21T13:38:58.736Z,6.2
2023-04-21T13:40:14.858Z,6.3
2023-04-21T13:41:31.005Z,6.3
2023-04-21T13:42:47.148Z,5.9
2023-04-21T13:44:03.277Z,4.5
2023-04-21T13:45:19.477Z,5.2
2023-04-21T13:46:34.709Z,5.9
2023-04-21T13:47:50.907Z,4.3
2023-04-21T13:49:06.116Z,4.5
2023-04-21T13:50:22.252Z,5.4
2023-04-21T13:51:38.394Z,5.6
2023-04-21T13:52:54.534Z,4.8
2023-04-21T13:54:10.659Z,4.9
2023-04-21T13:55:26.794Z,4.3
2023-04-21T13:56:42.925Z,4.5
2023-04-21T13:57:59.070Z,5.2
2023-04-21T13:59:15.210Z,5
2023-04-21T14:00:31.340Z,5.3
2023-04-21T14:01:47.471Z,6.1
2023-04-21T14:03:03.597Z,5.3
2023-04-21T14:04:19.763Z,5.3
2023-04-21T14:05:35.883Z,7.1
2023-04-21T14:06:52.011Z,5.3
2023-04-21T14:08:08.152Z,5.6
2023-04-21T14:09:24.290Z,4
2023-04-21T14:10:40.428Z,4.9
2023-04-21T14:11:56.565Z,5.2
2023-04-21T14:13:12.697Z,5.7
2023-04-21T14:14:28.839Z,4.4
2023-04-21T14:15:44.965Z,5.2
2023-04-21T14:17:01.109Z,4.5
2023-04-21T14:18:17.250Z,3.6
2023-04-21T14:19:33.387Z,3.5
2023-04-21T14:20:49.573Z,3.9
2023-04-21T14:22:04.811Z,4.5
2023-04-21T14:23:20.029Z,4.5
2023-04-21T14:24:35.165Z,4.3
2023-04-21T14:25:51.323Z,5.2
2023-04-21T14:27:07.454Z,5.8
2023-04-21T14:28:23.592Z,5.4
2023-04-21T14:29:39.713Z,4.8
2023-04-21T14:30:55.853Z,3.8
2023-04-21T14:32:11.992Z,3.4
2023-04-21T14:33:28.132Z,4.6
2023-04-21T14:34:44.265Z,5.4
2023-04-21T14:36:00.394Z,3.8
2023-04-21T14:37:16.528Z,4.7
2023-04-21T14:38:32.687Z,3.8
2023-04-21T14:39:48.805Z,5.9
2023-04-21T14:41:04.941Z,4.6
2023-04-21T14:42:21.085Z,4.6
2023-04-21T14:43:37.217Z,5.3
2023-04-21T14:46:09.489Z,3.7
2023-04-21T14:47:25.629Z,3.8
2023-04-21T14:48:41.753Z,3.8
2023-04-21T14:49:57.886Z,5.3
2023-04-21T14:51:14.044Z,3.7
2023-04-21T14:52:30.166Z,4
2023-04-21T14:53:46.315Z,3.5
2023-04-21T14:55:02.445Z,3.4
2023-04-21T14:56:18.576Z,3.7
2023-04-21T14:57:34.714Z,4.1
2023-04-21T14:58:50.862Z,3.8
2023-04-21T15:00:06.988Z,3.8
2023-04-21T15:01:23.124Z,4.2
2023-04-21T15:02:39.252Z,3.4
2023-04-21T15:03:55.410Z,3.2
2023-04-21T15:05:11.545Z,3.5
2023-04-21T15:06:27.678Z,4.6
2023-04-21T15:07:43.806Z,4.2
2023-04-21T15:08:59.941Z,3.7
2023-04-21T15:10:16.091Z,3
2023-04-21T15:11:32.278Z,4.8
2023-04-21T15:12:47.529Z,3.6
2023-04-21T15:14:02.726Z,3.9
2023-04-21T15:15:18.864Z,2.6
2023-04-21T15:16:34.991Z,3.7
2023-04-21T15:17:51.123Z,4.4
2023-04-21T15:19:07.265Z,3.8
2023-04-21T15:20:23.413Z,3.5
2023-04-21T15:21:39.552Z,3.4
2023-04-21T15:22:55.669Z,3.4
2023-04-21T15:25:27.952Z,4.1
2023-04-21T15:26:44.084Z,4
2023-04-21T15:28:00.226Z,3.8
2023-04-21T15:29:16.357Z,4.5
2023-04-21T15:30:32.498Z,4.1
2023-04-21T15:31:48.633Z,3.3
2023-04-21T15:33:04.782Z,3.1
2023-04-21T15:34:20.903Z,5.2
2023-04-21T15:35:37.033Z,2.9
2023-04-21T15:36:53.178Z,3.4
2023-04-21T15:38:09.301Z,3.3
2023-04-21T15:39:25.454Z,3.1
2023-04-21T15:40:41.588Z,3.2
2023-04-21T15:41:57.730Z,4.2
2023-04-21T15:43:13.867Z,4
2023-04-21T15:44:29.992Z,4.5
2023-04-21T15:45:46.199Z,3.3
2023-04-21T15:47:01.434Z,3.6
2023-04-21T15:48:16.652Z,3.8
2023-04-21T15:49:32.783Z,4.4
2023-04-21T15:50:48.931Z,3.3
2023-04-21T15:52:05.052Z,4.7
2023-04-21T15:53:21.181Z,3.2
2023-04-21T15:54:37.320Z,3.2
2023-04-21T15:55:53.474Z,3.2
2023-04-21T15:57:09.593Z,4.1
2023-04-21T15:58:25.742Z,4
2023-04-21T15:59:41.875Z,3
2023-04-21T16:00:57.997Z,3.8
2023-04-21T16:02:14.160Z,2.7
2023-04-21T16:03:30.279Z,3.4
2023-04-21T16:04:46.417Z,3.5
2023-04-21T16:06:02.545Z,2.8
2023-04-21T16:07:18.686Z,3.7
2023-04-21T16:08:34.830Z,4
2023-04-21T16:09:50.964Z,4.2
2023-04-21T16:11:07.100Z,3.2
2023-04-21T16:12:23.227Z,3
2023-04-21T16:13:39.365Z,3.5
2023-04-21T16:14:55.516Z,3.2
2023-04-21T16:16:11.638Z,3.5
2023-04-21T16:17:27.783Z,3
2023-04-21T16:18:43.900Z,3
2023-04-21T16:20:00.098Z,3.1
2023-04-21T16:21:15.342Z,3.6
2023-04-21T16:22:31.526Z,3.3
2023-04-21T16:23:46.743Z,2.8
2023-04-21T16:25:02.873Z,3.7
2023-04-21T16:26:19.019Z,2.8
2023-04-21T16:27:35.142Z,2.9
2023-04-21T16:28:51.287Z,3.2
2023-04-21T16:30:07.418Z,3.9
2023-04-21T16:31:23.567Z,3.5
2023-04-21T16:32:39.687Z,4
2023-04-21T16:33:55.837Z,4
2023-04-21T16:35:11.960Z,3.7
2023-04-21T16:36:28.089Z,3.2
2023-04-21T16:37:44.245Z,3.3
2023-04-21T16:39:00.384Z,3.5
2023-04-21T16:40:16.506Z,3.5
2023-04-21T16:41:32.640Z,2.8
2023-04-21T16:42:48.767Z,3.7
2023-04-21T16:44:04.920Z,2.6
2023-04-21T16:45:21.062Z,3.6
2023-04-21T16:46:37.190Z,4.3
2023-04-21T16:47:53.323Z,2.9
2023-04-21T16:49:09.459Z,3.5
2023-04-21T16:50:25.596Z,3.2
2023-04-21T16:51:41.733Z,4.3
2023-04-21T16:52:57.880Z,3
2023-04-21T16:54:14.011Z,2.9
2023-04-21T16:55:30.189Z,2.6
2023-04-21T16:56:45.428Z,3.7
2023-04-21T16:58:00.648Z,4
2023-04-21T16:59:16.768Z,4.4
2023-04-21T17:00:32.924Z,2.8
2023-04-21T17:01:49.047Z,3.1
2023-04-21T17:03:05.182Z,3.8
2023-04-21T17:04:21.323Z,2.8
2023-04-21T17:05:37.459Z,3.2
2023-04-21T17:06:53.614Z,3.2
2023-04-21T17:08:09.740Z,3.3
2023-04-21T17:09:25.872Z,3.2
2023-04-21T17:10:42.010Z,3.7
2023-04-21T17:11:58.138Z,3.5
2023-04-21T17:13:14.291Z,3.2
2023-04-21T17:14:30.426Z,2.5
2023-04-21T17:15:46.548Z,3.3
2023-04-21T17:17:02.695Z,3.2
2023-04-21T17:18:18.823Z,2.9
2023-04-21T17:19:34.965Z,2.8
2023-04-21T17:20:51.106Z,4.1
2023-04-21T17:22:07.237Z,2.8
2023-04-21T17:23:23.366Z,3
2023-04-21T17:24:39.506Z,3.4
2023-04-21T17:25:55.655Z,3.7
2023-04-21T17:27:11.778Z,2.9
2023-04-21T17:28:27.904Z,4
2023-04-21T17:29:44.107Z,3.5
2023-04-21T17:30:59.360Z,3.4
2023-04-21T17:32:14.573Z,3.5
2023-04-21T17:33:29.723Z,3.1
2023-04-21T17:34:45.880Z,2.9
2023-04-21T17:36:02.007Z,3.6
2023-04-21T17:37:18.130Z,2.8
2023-04-21T17:38:34.278Z,3.1